Time;durP1;ratioP1;P1;durP2;ratioP2;P2;SDS_P1;SDS_P2;PMS_P1;PMS_P2;Temp;Humidity;BMP_temperature;BMP_pressure;BME280_temperature;BME280_humidity;BME280_pressure;Samples;Min_cycle;Max_cycle;Signal;HPM_P1;HPM_P2
2021/01/24 00:00:32;;;;;;;5.97;4.57;;;2.20;99.90;;;;;;6144161;23;20388;-87
2021/01/24 00:03:00;;;;;;;4.33;3.93;;;2.20;99.90;;;;;;6148087;23;20400;-87
2021/01/24 00:05:25;;;;;;;5.23;3.77;;;2.20;99.90;;;;;;6146559;23;20691;-87
2021/01/24 00:07:51;;;;;;;4.23;3.83;;;2.20;99.90;;;;;;6148358;23;20525;-87
2021/01/24 00:10:17;;;;;;;4.47;4.07;;;2.20;99.90;;;;;;6147161;23;20168;-88
2021/01/24 00:12:55;;;;;;;4.13;3.73;;;2.20;99.90;;;;;;6145431;23;20626;-88
2021/01/24 00:15:38;;;;;;;4.67;4.17;;;2.10;99.90;;;;;;6168575;23;20270;-88
2021/01/24 00:18:03;;;;;;;5.33;4.60;;;2.10;99.90;;;;;;6144164;23;20395;-88
2021/01/24 00:20:31;;;;;;;4.70;4.20;;;2.10;99.90;;;;;;6145246;23;20164;-87
2021/01/24 00:22:57;;;;;;;5.03;4.63;;;2.10;99.90;;;;;;6120545;23;20192;-88
2021/01/24 00:25:22;;;;;;;4.60;4.20;;;2.00;99.90;;;;;;6146031;23;20450;-89
2021/01/24 00:27:48;;;;;;;5.70;5.20;;;2.00;99.90;;;;;;6144785;23;21006;-88
2021/01/24 00:30:15;;;;;;;7.67;6.50;;;2.00;99.90;;;;;;6143399;23;20649;-88
2021/01/24 00:32:42;;;;;;;7.20;5.47;;;2.00;99.90;;;;;;6120408;23;20196;-88
2021/01/24 00:35:09;;;;;;;7.93;7.00;;;2.00;99.90;;;;;;6145817;23;20461;-89
2021/01/24 00:37:35;;;;;;;7.50;6.70;;;1.90;99.90;;;;;;6146673;23;20392;-88
2021/01/24 00:40:02;;;;;;;8.07;7.27;;;1.90;99.90;;;;;;6145596;23;20423;-89
2021/01/24 00:42:28;;;;;;;6.80;6.10;;;1.80;99.90;;;;;;6147409;23;20171;-88
2021/01/24 00:44:53;;;;;;;8.17;7.00;;;1.80;99.90;;;;;;6140006;23;20737;-89
2021/01/24 00:47:20;;;;;;;8.10;6.80;;;1.80;99.90;;;;;;6145980;23;20528;-89
2021/01/24 00:49:45;;;;;;;8.37;7.00;;;1.70;99.90;;;;;;6144118;23;20164;-88
2021/01/24 00:52:11;;;;;;;9.17;6.77;;;1.70;99.90;;;;;;6144711;23;20454;-88
2021/01/24 00:54:37;;;;;;;9.67;7.50;;;1.70;99.90;;;;;;6145460;23;20195;-87
2021/01/24 00:57:04;;;;;;;7.17;6.33;;;1.70;99.90;;;;;;6143448;23;20167;-89
2021/01/24 00:59:31;;;;;;;7.97;6.20;;;1.70;99.90;;;;;;6143363;23;20739;-88
2021/01/24 01:01:57;;;;;;;7.30;5.83;;;1.70;99.90;;;;;;6138842;23;20721;-88
2021/01/24 01:04:29;;;;;;;7.10;5.83;;;1.70;99.90;;;;;;6147293;23;20426;-88
2021/01/24 01:06:56;;;;;;;7.00;5.50;;;1.60;99.90;;;;;;6145828;23;20403;-87
2021/01/24 01:09:22;;;;;;;8.40;6.43;;;1.60;99.90;;;;;;6122519;23;20404;-88
2021/01/24 01:12:00;;;;;;;8.40;6.57;;;1.60;99.90;;;;;;6142733;23;20535;-88
2021/01/24 01:14:26;;;;;;;7.57;6.20;;;1.60;99.90;;;;;;6170896;23;20206;-88
2021/01/24 01:16:51;;;;;;;8.30;7.13;;;1.60;99.90;;;;;;6146230;23;20392;-87
2021/01/24 01:21:55;;;;;;;8.30;6.63;;;1.60;99.90;;;;;;6173580;23;20549;-88
2021/01/24 01:24:21;;;;;;;8.07;6.60;;;1.60;99.90;;;;;;6144861;23;20399;-88
2021/01/24 01:26:47;;;;;;;8.50;6.77;;;1.70;99.90;;;;;;6145780;23;20403;-88
2021/01/24 01:29:13;;;;;;;7.47;6.33;;;1.80;99.90;;;;;;6146002;23;20404;-90
2021/01/24 01:31:39;;;;;;;8.07;5.80;;;1.90;99.90;;;;;;6171786;23;20515;-88
2021/01/24 01:34:05;;;;;;;7.90;5.83;;;1.90;99.90;;;;;;6144583;23;20482;-90
2021/01/24 01:36:33;;;;;;;7.03;5.43;;;1.90;99.90;;;;;;6143323;23;20518;-89
2021/01/24 01:39:02;;;;;;;6.57;5.30;;;1.90;99.90;;;;;;6143608;23;20223;-90
2021/01/24 01:41:35;;;;;;;6.70;5.50;;;1.90;99.90;;;;;;6142643;23;20400;-89
2021/01/24 01:44:02;;;;;;;4.83;4.23;;;1.90;99.90;;;;;;6144651;23;20766;-88
2021/01/24 01:46:28;;;;;;;4.70;3.93;;;1.90;99.90;;;;;;6147319;23;20391;-89
2021/01/24 01:48:57;;;;;;;4.83;4.07;;;1.90;99.90;;;;;;6144429;23;20395;-88
2021/01/24 01:51:24;;;;;;;4.13;3.60;;;1.90;99.90;;;;;;6145289;23;20419;-88
2021/01/24 01:53:52;;;;;;;3.30;3.00;;;1.90;99.90;;;;;;6146085;23;20522;-89
2021/01/24 01:56:18;;;;;;;3.60;3.30;;;1.90;99.90;;;;;;6145941;23;20393;-89
2021/01/24 02:01:50;;;;;;;3.13;2.83;;;2.00;99.90;;;;;;6172978;23;20206;-90
2021/01/24 02:04:39;;;;;;;2.77;2.50;;;2.00;99.90;;;;;;6146608;23;20420;-89
2021/01/24 02:07:12;;;;;;;2.97;2.67;;;2.00;99.90;;;;;;6148478;23;20762;-90
2021/01/24 02:10:04;;;;;;;3.23;2.53;;;2.10;99.90;;;;;;6146186;23;20406;-89
2021/01/24 02:12:36;;;;;;;2.20;2.00;;;2.10;99.90;;;;;;6147125;23;21148;-89
2021/01/24 02:15:06;;;;;;;2.70;2.13;;;2.20;99.90;;;;;;6148472;23;20781;-89
2021/01/24 02:17:38;;;;;;;3.57;2.27;;;2.20;99.90;;;;;;6147064;23;20383;-88
2021/01/24 02:20:34;;;;;;;2.30;2.20;;;2.20;99.90;;;;;;6146555;23;20435;-90
2021/01/24 02:23:01;;;;;;;2.10;2.00;;;2.20;99.90;;;;;;6147399;23;20402;-90
2021/01/24 02:25:49;;;;;;;3.00;2.53;;;2.30;99.90;;;;;;6146407;23;20396;-89
2021/01/24 02:28:30;;;;;;;1.80;1.70;;;2.30;99.90;;;;;;6146033;23;20395;-90
2021/01/24 02:30:57;;;;;;;1.50;1.40;;;2.30;99.90;;;;;;6146280;23;20392;-89
2021/01/24 02:33:25;;;;;;;1.63;1.47;;;2.30;99.90;;;;;;6147156;23;20498;-89
2021/01/24 02:35:54;;;;;;;1.40;1.30;;;2.40;99.90;;;;;;6170871;23;20400;-88
2021/01/24 02:38:21;;;;;;;0.90;0.90;;;2.40;99.90;;;;;;6145793;23;20392;-88
2021/01/24 02:40:48;;;;;;;0.90;0.90;;;2.40;99.90;;;;;;6146495;23;20435;-88
2021/01/24 02:43:22;;;;;;;0.33;0.33;;;2.40;99.90;;;;;;6146339;23;20384;-89
2021/01/24 02:45:51;;;;;;;0.60;0.60;;;2.40;99.90;;;;;;6120890;23;20441;-89
2021/01/24 02:48:18;;;;;;;0.50;0.50;;;2.50;99.90;;;;;;6147340;23;20429;-88
2021/01/24 02:50:45;;;;;;;0.23;0.23;;;2.50;99.90;;;;;;6145439;23;20407;-88
2021/01/24 02:53:13;;;;;;;0.30;0.30;;;2.60;99.90;;;;;;6146892;23;20521;-89
2021/01/24 02:55:41;;;;;;;0.40;0.40;;;2.60;99.90;;;;;;6146894;23;20576;-89
2021/01/24 02:58:07;;;;;;;0.20;0.20;;;2.60;99.90;;;;;;6147757;23;20824;-89
2021/01/24 03:00:33;;;;;;;0.20;0.20;;;2.60;99.90;;;;;;6146064;23;20406;-90
2021/01/24 03:02:59;;;;;;;1.57;0.30;;;2.50;99.90;;;;;;6145928;23;20589;-90
2021/01/24 03:05:24;;;;;;;0.80;0.30;;;2.30;99.90;;;;;;6146307;23;20672;-89
2021/01/24 03:07:57;;;;;;;0.53;0.50;;;2.30;99.90;;;;;;6147046;23;20182;-89
2021/01/24 03:10:23;;;;;;;0.40;0.40;;;2.20;99.90;;;;;;6145642;23;20673;-90
2021/01/24 03:12:58;;;;;;;0.30;0.30;;;2.30;99.90;;;;;;6147922;23;20767;-89
2021/01/24 03:15:27;;;;;;;0.40;0.40;;;2.30;99.90;;;;;;6147309;23;20406;-90
2021/01/24 03:17:56;;;;;;;0.40;0.33;;;2.20;99.90;;;;;;6148867;23;20883;-89
2021/01/24 03:20:22;;;;;;;0.40;0.40;;;2.20;99.90;;;;;;6148542;23;20392;-90
2021/01/24 03:22:58;;;;;;;0.40;0.40;;;2.20;99.90;;;;;;6147164;23;20616;-91
2021/01/24 03:25:24;;;;;;;0.53;0.50;;;2.20;99.90;;;;;;6147000;23;20442;-91
2021/01/24 03:27:50;;;;;;;0.60;0.60;;;2.10;99.90;;;;;;6146428;23;20474;-91
2021/01/24 03:30:16;;;;;;;0.37;0.37;;;2.00;99.90;;;;;;6147540;23;20539;-90
2021/01/24 03:32:42;;;;;;;0.60;0.60;;;1.90;99.90;;;;;;6148021;23;20168;-92
2021/01/24 03:35:08;;;;;;;0.60;0.60;;;2.00;99.90;;;;;;6148707;23;20404;-91
2021/01/24 03:37:33;;;;;;;0.70;0.70;;;2.00;99.90;;;;;;6148755;23;20168;-90
2021/01/24 03:39:59;;;;;;;0.83;0.83;;;2.00;99.90;;;;;;6146255;23;20415;-90
2021/01/24 03:42:28;;;;;;;0.97;0.97;;;2.00;99.90;;;;;;6146975;23;20168;-90
2021/01/24 03:44:53;;;;;;;0.73;0.63;;;2.10;99.90;;;;;;6145513;23;20502;-91
2021/01/24 03:47:19;;;;;;;1.13;1.03;;;2.10;99.90;;;;;;6147769;23;20404;-91
2021/01/24 03:49:54;;;;;;;1.33;1.00;;;2.20;99.90;;;;;;6148494;23;20220;-91
2021/01/24 03:52:19;;;;;;;1.03;1.03;;;2.20;99.90;;;;;;6149065;23;20180;-90
2021/01/24 03:54:45;;;;;;;1.23;1.07;;;2.20;99.90;;;;;;6147794;23;20443;-90
2021/01/24 03:57:15;;;;;;;1.20;1.20;;;2.20;99.90;;;;;;6172975;23;20164;-90
2021/01/24 03:59:40;;;;;;;1.00;0.93;;;2.20;99.90;;;;;;6146942;23;20407;-91
2021/01/24 04:02:06;;;;;;;0.80;0.80;;;2.20;99.90;;;;;;6145914;23;20211;-91
2021/01/24 04:04:32;;;;;;;1.47;1.07;;;2.10;99.90;;;;;;6173275;23;20546;-91
2021/01/24 04:07:00;;;;;;;1.00;1.00;;;2.00;99.90;;;;;;6172366;23;20491;-91
2021/01/24 04:09:26;;;;;;;1.80;1.33;;;1.90;99.90;;;;;;6147158;23;20420;-92
2021/01/24 04:11:56;;;;;;;1.00;0.90;;;1.90;99.90;;;;;;6149336;23;20534;-92
2021/01/24 04:14:22;;;;;;;1.53;1.43;;;1.80;99.90;;;;;;6143741;23;20200;-91
2021/01/24 04:16:47;;;;;;;1.93;1.83;;;1.80;99.90;;;;;;6121537;23;20494;-91
2021/01/24 04:19:13;;;;;;;2.10;1.70;;;1.70;99.90;;;;;;6146386;23;20164;-91
2021/01/24 04:21:40;;;;;;;3.70;1.90;;;1.70;99.90;;;;;;6147029;23;20214;-90
2021/01/24 04:24:06;;;;;;;4.50;1.63;;;1.60;99.90;;;;;;6122767;23;20172;-91
2021/01/24 04:26:34;;;;;;;5.57;1.60;;;1.60;99.90;;;;;;6123681;23;20510;-91
2021/01/24 04:29:03;;;;;;;1.87;1.73;;;1.60;99.90;;;;;;6171624;23;20411;-90
2021/01/24 04:31:30;;;;;;;2.70;1.77;;;1.60;99.90;;;;;;6172529;23;20382;-89
2021/01/24 04:34:08;;;;;;;2.30;1.70;;;1.60;99.90;;;;;;6173554;23;20878;-89
2021/01/24 04:36:36;;;;;;;2.40;2.17;;;1.60;99.90;;;;;;6171807;23;20469;-90
2021/01/24 04:39:03;;;;;;;2.20;2.00;;;1.50;99.90;;;;;;6145939;23;20391;-90
2021/01/24 04:41:29;;;;;;;1.70;1.53;;;1.50;99.90;;;;;;6146676;23;20402;-90
2021/01/24 04:43:55;;;;;;;2.47;1.70;;;1.50;99.90;;;;;;6148007;23;20384;-90
2021/01/24 04:46:21;;;;;;;1.30;1.20;;;1.50;99.90;;;;;;6147257;23;20487;-90
2021/01/24 04:48:50;;;;;;;2.57;1.50;;;1.40;99.90;;;;;;6145470;23;20462;-89
2021/01/24 04:51:16;;;;;;;3.00;2.13;;;1.40;99.90;;;;;;6171239;23;21041;-90
2021/01/24 04:53:42;;;;;;;2.20;2.00;;;1.40;99.90;;;;;;6145321;23;20549;-89
2021/01/24 04:56:07;;;;;;;1.60;1.50;;;1.30;99.90;;;;;;6144043;23;20161;-88
2021/01/24 04:58:34;;;;;;;2.03;1.83;;;1.30;99.90;;;;;;6148145;23;20403;-90
2021/01/24 05:01:01;;;;;;;1.90;1.77;;;1.30;99.90;;;;;;6145933;23;20423;-88
2021/01/24 05:03:27;;;;;;;1.20;1.10;;;1.20;99.90;;;;;;6147008;23;20399;-89
2021/01/24 05:05:53;;;;;;;3.07;2.10;;;1.20;99.90;;;;;;6144919;23;20392;-89
2021/01/24 05:08:23;;;;;;;2.10;1.87;;;1.20;99.90;;;;;;6145641;23;20418;-89
2021/01/24 05:10:54;;;;;;;2.87;1.73;;;1.10;99.90;;;;;;6121341;23;20259;-89
2021/01/24 05:13:26;;;;;;;2.10;1.70;;;1.10;99.90;;;;;;6144775;23;20465;-88
2021/01/24 05:16:04;;;;;;;2.00;1.50;;;1.00;99.90;;;;;;6145198;23;20395;-89
2021/01/24 05:19:20;;;;;;;2.90;2.60;;;0.90;99.90;;;;;;6152518;23;20495;-90
2021/01/24 05:21:47;;;;;;;2.17;1.90;;;0.90;99.90;;;;;;6123157;23;20403;-89
2021/01/24 05:24:17;;;;;;;3.10;1.90;;;0.90;99.90;;;;;;6146643;23;20869;-90
2021/01/24 05:26:45;;;;;;;2.70;2.43;;;0.90;99.90;;;;;;6172718;23;20541;-89
2021/01/24 05:29:30;;;;;;;2.70;2.10;;;1.00;99.90;;;;;;6123279;23;20466;-90
2021/01/24 05:31:56;;;;;;;2.90;2.53;;;1.00;99.90;;;;;;6147776;23;20403;-91
2021/01/24 05:34:51;;;;;;;2.80;2.23;;;1.00;99.90;;;;;;6123747;23;20443;-90
2021/01/24 05:37:17;;;;;;;1.90;1.80;;;1.00;99.90;;;;;;6148054;23;20404;-91
2021/01/24 05:39:44;;;;;;;3.10;1.97;;;0.90;99.90;;;;;;6149193;23;20689;-90
2021/01/24 05:42:11;;;;;;;2.43;2.13;;;0.90;99.90;;;;;;6148064;23;20395;-91
2021/01/24 05:44:39;;;;;;;2.07;1.87;;;0.90;99.90;;;;;;6147383;23;20400;-90
2021/01/24 05:47:05;;;;;;;3.13;1.63;;;0.90;99.90;;;;;;6122678;23;20411;-89
2021/01/24 05:49:35;;;;;;;2.83;2.20;;;0.80;99.90;;;;;;6146613;23;20750;-89
2021/01/24 05:52:08;;;;;;;3.50;2.47;;;0.80;99.90;;;;;;6146467;23;20358;-89
2021/01/24 05:54:45;;;;;;;2.43;2.23;;;0.80;99.90;;;;;;6146476;23;20470;-89
2021/01/24 05:57:15;;;;;;;3.10;2.30;;;0.80;99.90;;;;;;6146313;23;20722;-89
2021/01/24 05:59:58;;;;;;;3.37;3.07;;;0.70;99.90;;;;;;6146528;23;20407;-90
2021/01/24 06:02:25;;;;;;;3.50;2.80;;;0.70;99.90;;;;;;6174344;23;20438;-90
2021/01/24 06:04:52;;;;;;;2.83;2.53;;;0.60;99.90;;;;;;6147274;23;20400;-89
2021/01/24 06:07:18;;;;;;;2.50;2.30;;;0.70;99.90;;;;;;6146632;23;20451;-90
2021/01/24 06:09:47;;;;;;;5.73;2.70;;;0.70;99.90;;;;;;6146114;23;20915;-89
2021/01/24 06:12:16;;;;;;;5.60;2.33;;;0.70;99.90;;;;;;6146662;23;20392;-89
2021/01/24 06:14:50;;;;;;;2.40;2.10;;;0.60;99.90;;;;;;6146024;23;20453;-89
2021/01/24 06:17:22;;;;;;;2.10;1.90;;;0.60;99.90;;;;;;6146979;23;20443;-91
2021/01/24 06:19:58;;;;;;;2.30;2.20;;;0.60;99.90;;;;;;6147154;23;20400;-90
2021/01/24 06:22:31;;;;;;;3.20;2.60;;;0.50;99.90;;;;;;6146183;23;20391;-90
2021/01/24 06:25:00;;;;;;;3.03;2.73;;;0.50;99.90;;;;;;6145290;23;20440;-90
2021/01/24 06:27:37;;;;;;;3.30;3.00;;;0.50;99.90;;;;;;6147100;23;20435;-90
2021/01/24 06:30:14;;;;;;;4.93;2.87;;;0.50;99.90;;;;;;6147007;23;20490;-90
2021/01/24 06:32:42;;;;;;;3.17;2.80;;;0.40;99.90;;;;;;6173999;23;20384;-91
2021/01/24 06:35:20;;;;;;;3.77;2.47;;;0.40;99.90;;;;;;6121832;23;20414;-90
2021/01/24 06:37:51;;;;;;;3.17;2.87;;;0.40;99.90;;;;;;6146333;23;20400;-90
2021/01/24 06:40:22;;;;;;;3.50;2.97;;;0.40;99.90;;;;;;6147608;23;20812;-90
2021/01/24 06:43:02;;;;;;;4.03;3.63;;;0.40;99.90;;;;;;6146552;23;20395;-89
2021/01/24 06:45:28;;;;;;;3.10;2.50;;;0.40;99.90;;;;;;6146855;23;20418;-90
2021/01/24 06:47:55;;;;;;;4.80;2.83;;;0.50;99.90;;;;;;6145759;23;20392;-89
2021/01/24 06:50:37;;;;;;;6.27;3.20;;;0.50;99.90;;;;;;6145839;23;20160;-89
2021/01/24 06:53:18;;;;;;;2.73;2.27;;;0.60;99.90;;;;;;6146671;23;20805;-90
2021/01/24 06:55:54;;;;;;;2.87;2.30;;;0.60;99.90;;;;;;6146321;23;20403;-89
2021/01/24 06:58:31;;;;;;;2.93;2.30;;;0.70;99.90;;;;;;6146360;23;20395;-90
2021/01/24 07:01:24;;;;;;;2.80;2.20;;;0.70;99.90;;;;;;6146431;23;20391;-90
2021/01/24 07:06:44;;;;;;;2.87;2.30;;;0.70;99.90;;;;;;6173262;23;20409;-91
2021/01/24 07:09:30;;;;;;;4.10;2.30;;;0.80;99.90;;;;;;6146672;23;20482;-89
2021/01/24 07:12:01;;;;;;;2.97;2.10;;;0.70;99.90;;;;;;6127662;23;20397;-94
2021/01/24 07:14:33;;;;;;;2.57;2.37;;;0.80;99.90;;;;;;6148892;23;20905;-92
2021/01/24 07:17:06;;;;;;;6.97;2.60;;;0.70;99.90;;;;;;6148873;23;20422;-95
2021/01/24 07:19:45;;;;;;;4.40;2.20;;;0.70;99.90;;;;;;6148322;23;20404;-92
2021/01/24 07:22:13;;;;;;;3.57;2.47;;;0.70;99.90;;;;;;6148164;23;20446;-91
2021/01/24 07:24:40;;;;;;;2.63;2.10;;;0.60;99.90;;;;;;6147722;23;20504;-92
2021/01/24 07:27:12;;;;;;;3.00;2.33;;;0.60;99.90;;;;;;6147059;23;20396;-91
2021/01/24 07:29:38;;;;;;;3.00;2.40;;;0.60;99.90;;;;;;6146684;23;20418;-89
2021/01/24 07:32:17;;;;;;;3.00;2.40;;;0.60;99.90;;;;;;6146005;23;20674;-92
2021/01/24 07:34:50;;;;;;;2.80;2.10;;;0.60;99.90;;;;;;6173880;23;20435;-89
2021/01/24 07:37:16;;;;;;;3.00;2.20;;;0.60;99.90;;;;;;6145127;23;20395;-91
2021/01/24 07:39:43;;;;;;;3.13;2.70;;;0.50;99.90;;;;;;6146224;23;20740;-88
2021/01/24 07:42:11;;;;;;;2.85;2.28;;;0.50;99.90;;;;;;6148368;23;20918;-90
2021/01/24 07:44:39;;;;;;;4.82;2.53;;;0.50;99.90;;;;;;6147224;23;20170;-91
2021/01/24 07:47:06;;;;;;;3.20;2.88;;;0.50;99.90;;;;;;6121807;23;20191;-92
2021/01/24 07:49:32;;;;;;;2.70;2.47;;;0.50;99.90;;;;;;6144488;23;20187;-91
2021/01/24 07:51:57;;;;;;;3.83;3.30;;;0.40;99.90;;;;;;6145917;23;20701;-91
2021/01/24 07:54:24;;;;;;;6.33;2.97;;;0.50;99.90;;;;;;6147334;23;20447;-89
2021/01/24 07:56:57;;;;;;;3.40;3.10;;;0.60;99.90;;;;;;6144463;23;20161;-91
2021/01/24 07:59:24;;;;;;;5.20;2.27;;;0.70;99.90;;;;;;6148185;23;20576;-87
2021/01/24 08:01:54;;;;;;;4.40;3.40;;;0.80;99.90;;;;;;6171493;23;20391;-89
2021/01/24 08:04:23;;;;;;;4.00;2.90;;;0.80;99.90;;;;;;6144897;23;20474;-88
2021/01/24 08:06:50;;;;;;;6.40;3.87;;;0.80;99.90;;;;;;6143728;23;20499;-91
2021/01/24 08:09:16;;;;;;;7.17;2.80;;;0.80;99.90;;;;;;6143090;23;20884;-89
2021/01/24 08:11:42;;;;;;;6.40;3.00;;;0.80;99.90;;;;;;6144819;23;20392;-91
2021/01/24 08:14:09;;;;;;;4.83;2.50;;;0.80;99.90;;;;;;6146046;23;20786;-87
2021/01/24 08:16:46;;;;;;;4.57;3.10;;;0.70;99.90;;;;;;6144319;23;20202;-85
2021/01/24 08:19:19;;;;;;;2.40;2.20;;;0.80;99.90;;;;;;6145143;23;20423;-85
2021/01/24 08:21:49;;;;;;;2.60;2.17;;;0.90;99.90;;;;;;6165913;23;20726;-87
2021/01/24 08:24:23;;;;;;;3.03;2.77;;;0.90;99.90;;;;;;6164653;23;20516;-87
2021/01/24 08:26:49;;;;;;;2.37;2.17;;;0.90;99.90;;;;;;6137533;23;20398;-88
2021/01/24 08:29:15;;;;;;;3.60;2.60;;;1.00;99.90;;;;;;6138653;23;20396;-88
2021/01/24 08:31:42;;;;;;;2.50;2.30;;;1.10;99.90;;;;;;6165356;23;20384;-89
2021/01/24 08:34:09;;;;;;;2.90;2.20;;;1.00;99.90;;;;;;6165252;23;20601;-90
2021/01/24 08:36:36;;;;;;;3.17;2.07;;;1.00;99.90;;;;;;6138533;23;20396;-89
2021/01/24 08:39:03;;;;;;;2.90;2.70;;;1.00;99.90;;;;;;6139473;23;20396;-85
2021/01/24 08:41:38;;;;;;;2.97;2.77;;;1.00;99.90;;;;;;6140257;23;20462;-89
2021/01/24 08:44:16;;;;;;;4.80;2.47;;;0.80;99.90;;;;;;6138935;23;20395;-89
2021/01/24 08:46:47;;;;;;;3.03;2.60;;;0.80;99.90;;;;;;6138467;23;20406;-88
2021/01/24 08:49:19;;;;;;;2.40;2.13;;;0.90;99.90;;;;;;6138899;23;20388;-86
2021/01/24 08:51:49;;;;;;;2.63;2.23;;;1.00;99.90;;;;;;6140631;23;20458;-88
2021/01/24 08:54:32;;;;;;;2.40;1.90;;;1.20;99.90;;;;;;6139200;23;20711;-90
2021/01/24 08:57:18;;;;;;;3.90;2.77;;;1.60;99.90;;;;;;6138805;23;20882;-90
2021/01/24 08:59:50;;;;;;;3.10;2.73;;;1.60;99.90;;;;;;6138485;23;20419;-90
2021/01/24 09:02:39;;;;;;;5.23;3.20;;;1.60;99.90;;;;;;6138456;23;20400;-88
2021/01/24 09:05:13;;;;;;;5.33;3.43;;;1.90;99.90;;;;;;6138765;23;20414;-89
2021/01/24 09:07:46;;;;;;;2.87;2.67;;;2.20;99.90;;;;;;6139284;23;20400;-91
2021/01/24 09:10:24;;;;;;;2.60;2.20;;;2.40;99.90;;;;;;6140312;23;20405;-91
2021/01/24 09:12:52;;;;;;;2.77;1.97;;;2.50;99.90;;;;;;6141407;23;20848;-88
2021/01/24 09:15:21;;;;;;;3.80;2.63;;;2.40;99.90;;;;;;6140647;23;20616;-86
2021/01/24 09:17:51;;;;;;;3.63;2.30;;;2.10;99.90;;;;;;6166620;23;20919;-89
2021/01/24 09:20:17;;;;;;;2.73;2.53;;;1.90;99.90;;;;;;6139004;23;20415;-88
2021/01/24 09:22:43;;;;;;;5.90;1.97;;;1.70;99.90;;;;;;6139796;23;20605;-89
2021/01/24 09:25:09;;;;;;;3.27;2.50;;;1.70;99.90;;;;;;6140275;23;20915;-89
2021/01/24 09:27:36;;;;;;;2.50;2.30;;;1.80;99.90;;;;;;6141958;23;20164;-88
2021/01/24 09:30:03;;;;;;;3.40;2.30;;;1.70;99.90;;;;;;6141328;23;20391;-90
2021/01/24 09:32:29;;;;;;;2.17;1.97;;;1.80;99.90;;;;;;6143614;23;20905;-92
2021/01/24 09:34:55;;;;;;;3.60;2.60;;;1.90;99.90;;;;;;6140884;23;20546;-87
2021/01/24 09:37:20;;;;;;;2.30;2.10;;;1.90;99.90;;;;;;6138354;23;20267;-86
2021/01/24 09:39:46;;;;;;;2.37;2.17;;;1.90;99.90;;;;;;6138869;23;20168;-85
2021/01/24 09:42:12;;;;;;;6.90;2.87;;;2.00;99.90;;;;;;6137686;23;20169;-88
2021/01/24 09:44:38;;;;;;;2.07;1.97;;;2.00;99.90;;;;;;6137749;23;20267;-86
2021/01/24 09:47:03;;;;;;;3.70;2.20;;;2.00;99.90;;;;;;6139418;23;20407;-87
2021/01/24 09:49:29;;;;;;;2.00;1.80;;;2.00;99.90;;;;;;6140370;23;20170;-90
2021/01/24 09:51:55;;;;;;;2.20;2.10;;;2.00;99.90;;;;;;6139757;23;20172;-86
2021/01/24 09:54:21;;;;;;;1.90;1.53;;;2.00;99.90;;;;;;6140923;23;20196;-89
2021/01/24 09:56:46;;;;;;;3.13;2.33;;;2.00;99.90;;;;;;6140752;23;20308;-90
2021/01/24 09:59:14;;;;;;;1.90;1.80;;;2.00;99.90;;;;;;6140659;23;20255;-89
2021/01/24 10:01:40;;;;;;;3.00;2.27;;;2.00;99.90;;;;;;6139854;23;20629;-92
2021/01/24 10:04:05;;;;;;;5.70;2.40;;;2.10;99.90;;;;;;6144146;23;20408;-95
2021/01/24 10:06:33;;;;;;;5.53;2.30;;;2.20;99.90;;;;;;6170824;23;20247;-92
2021/01/24 10:08:59;;;;;;;1.73;1.63;;;2.40;99.90;;;;;;6143152;23;20410;-91
2021/01/24 10:11:25;;;;;;;2.90;2.63;;;2.50;99.90;;;;;;6144060;23;20400;-91
2021/01/24 10:13:51;;;;;;;3.27;1.70;;;2.70;99.90;;;;;;6143276;23;20521;-86
2021/01/24 10:16:17;;;;;;;2.13;1.63;;;2.80;99.90;;;;;;6142179;23;20848;-89
2021/01/24 10:18:44;;;;;;;1.83;1.73;;;2.80;99.90;;;;;;6142718;23;20172;-85
2021/01/24 10:21:09;;;;;;;1.70;1.60;;;2.90;99.90;;;;;;6142106;23;20565;-85
2021/01/24 10:23:35;;;;;;;2.57;1.77;;;2.90;99.90;;;;;;6142484;23;20773;-84
2021/01/24 10:26:01;;;;;;;5.03;2.00;;;2.80;99.90;;;;;;6143416;23;20188;-83
2021/01/24 10:28:27;;;;;;;2.50;2.30;;;2.80;99.90;;;;;;6142077;23;20411;-85
2021/01/24 10:30:54;;;;;;;2.10;1.93;;;2.90;99.90;;;;;;6140993;23;20473;-85
2021/01/24 10:33:20;;;;;;;1.70;1.60;;;3.10;99.90;;;;;;6142442;23;20443;-85
2021/01/24 10:35:47;;;;;;;2.40;2.20;;;3.30;99.90;;;;;;6141695;23;20419;-85
2021/01/24 10:38:25;;;;;;;2.17;1.97;;;3.10;99.90;;;;;;6142499;23;20419;-84
2021/01/24 10:40:51;;;;;;;2.63;2.20;;;3.00;99.90;;;;;;6142150;23;20395;-84
2021/01/24 10:43:17;;;;;;;3.23;2.30;;;3.00;99.90;;;;;;6142414;23;20388;-84
2021/01/24 10:45:43;;;;;;;1.37;1.27;;;3.20;99.90;;;;;;6142839;23;20410;-84
2021/01/24 10:48:10;;;;;;;2.37;1.43;;;2.80;99.90;;;;;;6141427;23;20398;-84
2021/01/24 10:50:37;;;;;;;3.07;2.40;;;3.10;99.90;;;;;;6141633;23;20400;-85
2021/01/24 10:53:04;;;;;;;1.97;1.60;;;3.40;99.90;;;;;;6143225;23;20446;-83
2021/01/24 10:55:30;;;;;;;1.60;1.03;;;3.50;99.90;;;;;;6145822;23;20573;-83
2021/01/24 10:57:55;;;;;;;1.20;1.10;;;3.20;99.90;;;;;;6145186;23;20547;-84
2021/01/24 11:00:21;;;;;;;2.43;2.23;;;3.10;99.90;;;;;;6144673;23;20164;-84
2021/01/24 11:02:47;;;;;;;1.70;1.60;;;3.30;99.90;;;;;;6145235;23;20551;-84
2021/01/24 11:05:13;;;;;;;6.83;1.83;;;3.40;99.90;;;;;;6144744;23;20973;-83
2021/01/24 11:07:40;;;;;;;1.90;1.30;;;3.70;99.90;;;;;;6145510;23;20381;-87
2021/01/24 11:10:07;;;;;;;1.60;1.50;;;3.70;99.90;;;;;;6144779;23;20175;-87
2021/01/24 11:12:33;;;;;;;3.17;1.30;;;3.90;99.90;;;;;;6144963;23;20430;-88
2021/01/24 11:14:59;;;;;;;1.90;1.43;;;3.80;99.80;;;;;;6145677;23;21000;-85
2021/01/24 11:17:26;;;;;;;2.90;1.80;;;3.40;99.90;;;;;;6145485;23;20167;-88
2021/01/24 11:19:52;;;;;;;1.47;1.37;;;3.70;99.90;;;;;;6145425;23;20173;-88
2021/01/24 11:22:21;;;;;;;2.63;1.43;;;4.50;99.10;;;;;;6144716;23;20539;-88
2021/01/24 11:24:47;;;;;;;1.47;1.37;;;4.60;98.30;;;;;;6144883;23;20415;-87
2021/01/24 11:27:13;;;;;;;1.77;1.67;;;4.60;97.10;;;;;;6144834;23;20857;-86
2021/01/24 11:29:40;;;;;;;1.30;1.20;;;4.50;96.90;;;;;;6145423;23;20207;-86
2021/01/24 11:32:07;;;;;;;2.17;1.30;;;4.40;96.70;;;;;;6143843;23;20435;-85
2021/01/24 11:34:33;;;;;;;1.27;1.17;;;4.90;95.80;;;;;;6145066;23;20574;-85
2021/01/24 11:36:59;;;;;;;1.10;1.10;;;4.50;95.70;;;;;;6145345;23;20419;-86
2021/01/24 11:39:25;;;;;;;1.40;1.30;;;3.90;96.50;;;;;;6145174;23;20171;-85
2021/01/24 11:41:51;;;;;;;1.27;1.07;;;3.90;98.00;;;;;;6144901;23;20403;-87
2021/01/24 11:44:17;;;;;;;1.60;1.13;;;4.20;97.50;;;;;;6144862;23;20657;-86
2021/01/24 11:46:43;;;;;;;1.87;1.77;;;3.80;97.90;;;;;;6144681;23;20219;-87
2021/01/24 11:49:08;;;;;;;2.00;1.80;;;3.60;99.30;;;;;;6144310;23;20884;-87
2021/01/24 11:51:34;;;;;;;2.87;1.70;;;3.50;99.90;;;;;;6144075;23;20399;-86
2021/01/24 11:54:00;;;;;;;2.43;2.00;;;3.40;99.90;;;;;;6144813;23;20215;-87
2021/01/24 11:56:26;;;;;;;2.77;2.00;;;3.40;99.90;;;;;;6144789;23;20893;-86
2021/01/24 11:58:52;;;;;;;2.63;1.67;;;3.50;99.90;;;;;;6144745;23;20175;-87
2021/01/24 12:01:17;;;;;;;1.20;1.10;;;3.40;99.90;;;;;;6143899;23;20164;-87
2021/01/24 12:03:44;;;;;;;2.50;1.83;;;3.30;99.90;;;;;;6145583;23;20199;-87
2021/01/24 12:06:10;;;;;;;2.73;2.00;;;3.30;99.90;;;;;;6145551;23;20421;-86
2021/01/24 12:08:36;;;;;;;1.53;1.30;;;3.30;99.10;;;;;;6145069;23;20415;-86
2021/01/24 12:11:01;;;;;;;1.43;1.33;;;3.20;98.70;;;;;;6144554;23;20388;-86
2021/01/24 12:13:27;;;;;;;1.03;0.93;;;3.30;98.80;;;;;;6143768;23;20650;-87
2021/01/24 12:15:53;;;;;;;2.70;1.60;;;3.40;98.40;;;;;;6143077;23;20180;-86
2021/01/24 12:18:18;;;;;;;2.00;1.80;;;4.00;98.00;;;;;;6142714;23;20701;-87
2021/01/24 12:20:44;;;;;;;1.50;1.40;;;4.20;97.60;;;;;;6142683;23;20168;-86
2021/01/24 12:23:10;;;;;;;1.47;1.00;;;3.80;97.00;;;;;;6141956;23;20161;-84
2021/01/24 12:25:35;;;;;;;1.70;1.07;;;3.50;97.20;;;;;;6144168;23;20172;-84
2021/01/24 12:28:01;;;;;;;1.63;1.23;;;3.50;97.70;;;;;;6142674;23;20554;-86
2021/01/24 12:30:27;;;;;;;2.07;1.10;;;3.40;97.30;;;;;;6142222;23;20167;-85
2021/01/24 12:32:53;;;;;;;0.80;0.80;;;3.90;97.00;;;;;;6143436;23;20165;-86
2021/01/24 12:35:18;;;;;;;1.93;1.40;;;4.60;96.00;;;;;;6143038;23;20230;-87
2021/01/24 12:37:44;;;;;;;1.27;0.97;;;5.30;94.20;;;;;;6144107;23;20399;-87
2021/01/24 12:40:11;;;;;;;1.77;1.10;;;4.90;93.60;;;;;;6142451;23;20194;-88
2021/01/24 12:42:36;;;;;;;2.23;1.30;;;5.30;93.60;;;;;;6143608;23;20542;-88
2021/01/24 12:45:03;;;;;;;1.47;1.37;;;4.70;93.90;;;;;;6143505;23;20640;-89
2021/01/24 12:47:29;;;;;;;3.70;1.93;;;5.00;93.80;;;;;;6143755;23;20519;-88
2021/01/24 12:49:54;;;;;;;1.70;1.60;;;4.80;95.40;;;;;;6139670;23;20410;-88
2021/01/24 12:52:20;;;;;;;1.30;1.20;;;4.80;94.30;;;;;;6140321;23;20509;-88
2021/01/24 12:54:46;;;;;;;1.33;1.20;;;4.20;94.40;;;;;;6140612;23;20207;-89
2021/01/24 12:57:11;;;;;;;1.60;1.37;;;4.20;96.00;;;;;;6140073;23;20994;-89
2021/01/24 12:59:41;;;;;;;1.63;1.53;;;5.40;94.20;;;;;;6141277;23;20556;-89
2021/01/24 13:02:08;;;;;;;2.13;1.90;;;5.70;91.70;;;;;;6116878;23;20968;-89
2021/01/24 13:04:34;;;;;;;1.93;1.83;;;5.80;91.70;;;;;;6139578;23;20479;-86
2021/01/24 13:07:00;;;;;;;1.73;1.63;;;5.40;91.00;;;;;;6140024;23;20615;-88
2021/01/24 13:09:26;;;;;;;2.47;1.67;;;5.70;92.20;;;;;;6140623;23;20164;-89
2021/01/24 13:11:52;;;;;;;1.93;1.50;;;6.70;89.20;;;;;;6140704;23;20410;-88
2021/01/24 13:14:17;;;;;;;2.37;1.23;;;6.50;86.20;;;;;;6141223;23;20941;-90